sensor_id;sensor_type;location;lat;lon;timestamp;pressure;altitude;pressure_sealevel;temperature;humidity
57610;BME280;43435;46.186;9.024;2023-08-30T05:35:04;97646.84;;;17.98;46.66
57610;BME280;43435;46.186;9.024;2023-08-30T06:29:12;97649.16;;;18.41;46.91
57610;BME280;43435;46.186;9.024;2023-08-30T06:31:37;97655.66;;;18.40;47.32
57610;BME280;43435;46.186;9.024;2023-08-30T06:34:04;97651.84;;;18.46;47.14
57610;BME280;43435;46.186;9.024;2023-08-30T06:36:30;97651.59;;;18.42;47.53
57610;BME280;43435;46.186;9.024;2023-08-30T06:38:55;97652.66;;;18.46;47.99
57610;BME280;43435;46.186;9.024;2023-08-30T06:41:20;97652.94;;;18.50;47.60
57610;BME280;43435;46.186;9.024;2023-08-30T06:43:45;97645.94;;;18.39;47.94
57610;BME280;43435;46.186;9.024;2023-08-30T06:46:10;97650.25;;;18.40;48.61
57610;BME280;43435;46.186;9.024;2023-08-30T06:48:36;97653.47;;;18.47;48.81
57610;BME280;43435;46.186;9.024;2023-08-30T06:51:01;97647.53;;;18.50;48.58
57610;BME280;43435;46.186;9.024;2023-08-30T06:53:26;97646.44;;;18.51;47.73
57610;BME280;43435;46.186;9.024;2023-08-30T13:30:07;97552.38;;;26.53;29.65
57610;BME280;43435;46.186;9.024;2023-08-30T13:32:32;97550.44;;;26.54;30.76
57610;BME280;43435;46.186;9.024;2023-08-30T13:34:58;97553.25;;;26.66;30.92
57610;BME280;43435;46.186;9.024;2023-08-30T13:37:24;97552.84;;;26.76;29.99
57610;BME280;43435;46.186;9.024;2023-08-30T13:39:50;97557.53;;;26.76;29.97
57610;BME280;43435;46.186;9.024;2023-08-30T13:42:15;97554.59;;;26.81;29.37
57610;BME280;43435;46.186;9.024;2023-08-30T13:44:40;97565.41;;;26.77;29.04
57610;BME280;43435;46.186;9.024;2023-08-30T13:47:08;97567.84;;;26.40;28.71
57610;BME280;43435;46.186;9.024;2023-08-30T13:49:33;97570.59;;;26.40;29.08
57610;BME280;43435;46.186;9.024;2023-08-30T13:52:00;97571.31;;;26.20;29.29
57610;BME280;43435;46.186;9.024;2023-08-30T13:54:25;97575.06;;;26.07;28.76
57610;BME280;43435;46.186;9.024;2023-08-30T13:56:50;97573.00;;;26.04;29.60
57610;BME280;43435;46.186;9.024;2023-08-30T13:59:16;97585.69;;;25.99;31.33
57610;BME280;43435;46.186;9.024;2023-08-30T14:01:41;97576.69;;;26.08;30.35
57610;BME280;43435;46.186;9.024;2023-08-30T14:04:07;97578.47;;;26.04;29.65
57610;BME280;43435;46.186;9.024;2023-08-30T14:06:32;97581.53;;;25.93;31.79
57610;BME280;43435;46.186;9.024;2023-08-30T14:08:57;97582.84;;;25.87;31.47
57610;BME280;43435;46.186;9.024;2023-08-30T14:11:23;97585.41;;;25.92;32.84
57610;BME280;43435;46.186;9.024;2023-08-30T14:13:48;97587.69;;;25.82;34.11
57610;BME280;43435;46.186;9.024;2023-08-30T14:16:13;97593.13;;;25.90;33.97
57610;BME280;43435;46.186;9.024;2023-08-30T14:18:38;97598.28;;;25.83;35.09
57610;BME280;43435;46.186;9.024;2023-08-30T14:21:04;97596.69;;;25.82;35.65
57610;BME280;43435;46.186;9.024;2023-08-30T14:23:29;97604.88;;;25.82;34.36
57610;BME280;43435;46.186;9.024;2023-08-30T14:25:57;97604.03;;;25.73;35.78
57610;BME280;43435;46.186;9.024;2023-08-30T14:28:23;97610.63;;;25.72;37.10
57610;BME280;43435;46.186;9.024;2023-08-30T14:30:48;97610.66;;;25.54;38.59
57610;BME280;43435;46.186;9.024;2023-08-30T14:33:14;97610.84;;;25.49;40.04
57610;BME280;43435;46.186;9.024;2023-08-30T14:35:42;97614.84;;;25.52;40.94
57610;BME280;43435;46.186;9.024;2023-08-30T14:38:07;97607.75;;;25.51;41.11
57610;BME280;43435;46.186;9.024;2023-08-30T14:40:32;97612.44;;;25.50;40.99
57610;BME280;43435;46.186;9.024;2023-08-30T14:42:58;97616.91;;;25.64;42.31
57610;BME280;43435;46.186;9.024;2023-08-30T14:45:23;97617.53;;;25.78;41.39
57610;BME280;43435;46.186;9.024;2023-08-30T14:47:48;97618.53;;;25.82;43.02
57610;BME280;43435;46.186;9.024;2023-08-30T14:50:13;97619.47;;;25.86;40.18
57610;BME280;43435;46.186;9.024;2023-08-30T14:52:38;97622.97;;;25.95;38.97
57610;BME280;43435;46.186;9.024;2023-08-30T14:55:04;97619.53;;;26.16;37.21
57610;BME280;43435;46.186;9.024;2023-08-30T14:57:29;97624.09;;;26.41;37.51
57610;BME280;43435;46.186;9.024;2023-08-30T14:59:54;97626.25;;;26.65;36.90
57610;BME280;43435;46.186;9.024;2023-08-30T15:02:19;97624.34;;;26.66;37.63
57610;BME280;43435;46.186;9.024;2023-08-30T18:50:34;97826.03;;;22.85;44.96
57610;BME280;43435;46.186;9.024;2023-08-30T18:52:59;97826.72;;;22.77;43.34
57610;BME280;43435;46.186;9.024;2023-08-30T18:55:25;97836.59;;;22.73;43.56
57610;BME280;43435;46.186;9.024;2023-08-30T18:57:50;97846.94;;;22.71;43.45
57610;BME280;43435;46.186;9.024;2023-08-30T19:18:11;97873.25;;;22.42;41.71
57610;BME280;43435;46.186;9.024;2023-08-30T19:20:36;97882.47;;;22.41;41.65
57610;BME280;43435;46.186;9.024;2023-08-30T19:23:01;97877.41;;;22.35;41.23
57610;BME280;43435;46.186;9.024;2023-08-30T19:25:31;97893.06;;;22.24;40.96
57610;BME280;43435;46.186;9.024;2023-08-30T19:27:56;97899.66;;;22.18;40.91
57610;BME280;43435;46.186;9.024;2023-08-30T19:30:23;97900.31;;;22.10;41.35
57610;BME280;43435;46.186;9.024;2023-08-30T19:32:48;97906.78;;;22.14;42.36
57610;BME280;43435;46.186;9.024;2023-08-30T19:35:13;97918.94;;;22.16;42.53
57610;BME280;43435;46.186;9.024;2023-08-30T19:37:38;97921.66;;;22.16;42.62
57610;BME280;43435;46.186;9.024;2023-08-30T19:40:07;97921.84;;;22.01;42.23
57610;BME280;43435;46.186;9.024;2023-08-30T19:42:32;97915.53;;;21.87;41.28
57610;BME280;43435;46.186;9.024;2023-08-30T19:44:57;97933.22;;;21.84;41.41
57610;BME280;43435;46.186;9.024;2023-08-30T19:47:23;97924.78;;;21.86;42.41
57610;BME280;43435;46.186;9.024;2023-08-30T19:49:49;97940.81;;;21.82;43.28
57610;BME280;43435;46.186;9.024;2023-08-30T19:52:14;97940.13;;;21.71;43.20
57610;BME280;43435;46.186;9.024;2023-08-30T19:54:40;97946.22;;;21.63;43.57
57610;BME280;43435;46.186;9.024;2023-08-30T19:57:05;97949.38;;;21.46;44.46
57610;BME280;43435;46.186;9.024;2023-08-30T19:59:30;97945.34;;;21.44;45.42
57610;BME280;43435;46.186;9.024;2023-08-30T20:01:57;97949.72;;;21.40;46.12
57610;BME280;43435;46.186;9.024;2023-08-30T20:04:24;97951.41;;;21.31;46.93
57610;BME280;43435;46.186;9.024;2023-08-30T20:06:49;97951.47;;;21.26;47.06
57610;BME280;43435;46.186;9.024;2023-08-30T20:09:16;97958.13;;;21.09;47.10
57610;BME280;43435;46.186;9.024;2023-08-30T20:11:41;97957.69;;;20.97;47.55
57610;BME280;43435;46.186;9.024;2023-08-30T20:14:06;97958.25;;;20.94;47.80
57610;BME280;43435;46.186;9.024;2023-08-30T20:16:32;97963.16;;;20.92;48.31
57610;BME280;43435;46.186;9.024;2023-08-30T20:18:57;97968.63;;;20.87;49.90
